Aviation Digital Data Service (ADDS)

Output produced by METARs form (2316 UTC 24 May 2018)
found at http://aviationweather.gov/adds/metars/
 
KBPT 241720Z 2418/2518 12008KT P6SM VCTS SCT040CB BKN120 
     TEMPO 2419/2423 3SM SHRA SCT015 OVC035 
     FM250200 VRB03KT P6SM VCSH SCT020 SCT040